createdAt,value
2023-05-09T00:01:27.540Z,101215.94
2023-05-09T00:03:55.256Z,101214.94
2023-05-09T00:06:24.506Z,101209.75
2023-05-09T00:08:52.084Z,101208.03
2023-05-09T00:11:19.748Z,101200.16
2023-05-09T00:13:47.902Z,101196.97
2023-05-09T00:16:16.850Z,101203.28
2023-05-09T00:18:45.216Z,101200.78
2023-05-09T00:21:12.844Z,101202.78
2023-05-09T00:23:41.881Z,101195.03
2023-05-09T00:26:10.494Z,101187.31
2023-05-09T00:28:39.917Z,101187.59
2023-05-09T00:31:08.055Z,101186.91
2023-05-09T00:33:35.645Z,101178.31
2023-05-09T00:36:03.935Z,101173.44
2023-05-09T00:38:31.704Z,101172.72
2023-05-09T00:41:02.394Z,101168.66
2023-05-09T00:43:31.684Z,101163.59
2023-05-09T00:45:59.436Z,101162.09
2023-05-09T00:48:27.116Z,101155.19
2023-05-09T00:50:55.019Z,101151.09
2023-05-09T00:53:25.532Z,101153.94
2023-05-09T00:55:55.585Z,101150.44
2023-05-09T00:58:24.828Z,101139.72
2023-05-09T01:00:52.671Z,101144.38
2023-05-09T01:03:20.483Z,101140.88
2023-05-09T01:05:55.756Z,101138.63
2023-05-09T01:11:35.337Z,101133.22
2023-05-09T01:14:13.449Z,101127.31
2023-05-09T01:16:48.626Z,101119.56
2023-05-09T01:19:50.875Z,101118.03
2023-05-09T01:22:21.170Z,101119.19
2023-05-09T01:25:11.937Z,101118.63
2023-05-09T01:27:49.454Z,101111.88
2023-05-09T01:30:21.004Z,101109.38
2023-05-09T01:32:52.312Z,101107.00
2023-05-09T01:35:24.277Z,101108.97
2023-05-09T01:37:52.640Z,101097.88
2023-05-09T01:40:22.065Z,101101.53
2023-05-09T01:42:53.676Z,101095.50
2023-05-09T01:45:24.682Z,101092.84
2023-05-09T01:47:52.657Z,101093.97
2023-05-09T01:50:22.632Z,101099.78
2023-05-09T01:52:54.333Z,101094.72
2023-05-09T01:55:25.436Z,101095.84
2023-05-09T01:57:56.560Z,101085.16
2023-05-09T02:00:26.939Z,101087.13
2023-05-09T02:02:58.301Z,101082.78
2023-05-09T02:05:29.628Z,101079.41
2023-05-09T02:07:59.290Z,101080.25
2023-05-09T02:10:28.551Z,101077.84
2023-05-09T02:12:57.150Z,101076.19
2023-05-09T02:15:27.090Z,101071.81
2023-05-09T02:17:54.703Z,101077.31
2023-05-09T02:20:22.436Z,101081.84
2023-05-09T02:22:51.641Z,101078.31
2023-05-09T02:25:20.966Z,101075.78
2023-05-09T02:27:48.633Z,101068.59
2023-05-09T02:30:25.184Z,101067.91
2023-05-09T02:32:58.516Z,101069.06
2023-05-09T02:35:27.890Z,101078.03
2023-05-09T02:37:56.135Z,101069.34
2023-05-09T02:40:24.496Z,101069.50
2023-05-09T02:42:53.550Z,101071.59
2023-05-09T02:45:22.619Z,101065.41
2023-05-09T02:47:50.599Z,101064.72
2023-05-09T02:50:19.873Z,101068.09
2023-05-09T02:52:48.043Z,101062.06
2023-05-09T02:55:17.778Z,101063.91
2023-05-09T02:57:45.464Z,101065.72
2023-05-09T03:00:14.340Z,101061.50
2023-05-09T03:02:42.030Z,101060.13
2023-05-09T03:05:16.412Z,101051.56
2023-05-09T03:07:46.295Z,101050.88
2023-05-09T03:10:14.582Z,101052.69
2023-05-09T03:12:43.653Z,101050.16
2023-05-09T03:15:11.784Z,101046.75
2023-05-09T03:17:42.984Z,101043.41
2023-05-09T03:20:14.121Z,101043.69
2023-05-09T03:22:42.519Z,101044.66
2023-05-09T03:25:13.695Z,101034.97
2023-05-09T03:27:42.547Z,101036.81
2023-05-09T03:30:17.128Z,101036.94
2023-05-09T03:32:50.757Z,101041.59
2023-05-09T03:35:19.358Z,101032.88
2023-05-09T03:37:50.573Z,101035.69
2023-05-09T03:40:45.985Z,101041.03
2023-05-09T03:43:14.085Z,101039.66
2023-05-09T03:46:06.630Z,101036.13
2023-05-09T03:48:37.549Z,101031.75
2023-05-09T03:51:06.108Z,101035.28
2023-05-09T03:53:38.569Z,101030.66
2023-05-09T03:56:09.569Z,101026.41
2023-05-09T03:58:44.780Z,101020.94
2023-05-09T04:01:13.121Z,101019.81
2023-05-09T04:03:41.206Z,101019.66
2023-05-09T04:06:11.698Z,101025.72
2023-05-09T04:08:44.108Z,101024.56
2023-05-09T04:11:13.049Z,101027.97
2023-05-09T04:13:43.890Z,101021.63
2023-05-09T04:16:23.582Z,101015.97
2023-05-09T04:18:52.646Z,101019.88
2023-05-09T04:21:20.569Z,101016.13
2023-05-09T04:23:51.372Z,101006.13
2023-05-09T04:26:25.801Z,101019.91
2023-05-09T04:28:58.561Z,101014.25
2023-05-09T04:31:27.312Z,101015.63
2023-05-09T04:33:55.988Z,101026.03
2023-05-09T04:36:29.569Z,101023.75
2023-05-09T04:39:02.571Z,101022.31
2023-05-09T04:41:34.565Z,101020.03
2023-05-09T04:44:03.194Z,101009.06
2023-05-09T04:46:30.901Z,101008.06
2023-05-09T04:48:58.747Z,101021.00
2023-05-09T04:51:27.422Z,101014.66
2023-05-09T04:53:55.640Z,101007.31
2023-05-09T04:56:30.086Z,101001.69
2023-05-09T04:59:00.751Z,101001.38
2023-05-09T05:01:28.614Z,100998.41
2023-05-09T05:04:22.010Z,100990.22
2023-05-09T05:06:50.082Z,100991.75
2023-05-09T05:09:19.602Z,100986.09
2023-05-09T05:11:59.527Z,100981.31
2023-05-09T05:14:31.921Z,100978.31
2023-05-09T05:17:00.289Z,100977.88
2023-05-09T05:19:28.018Z,100978.09
2023-05-09T05:21:56.365Z,100977.78
2023-05-09T05:24:26.000Z,100974.66
2023-05-09T05:26:54.972Z,100970.69
2023-05-09T05:29:22.921Z,100977.41
2023-05-09T05:31:52.184Z,100972.41
2023-05-09T05:34:22.772Z,100971.78
2023-05-09T05:36:50.539Z,100968.81
2023-05-09T05:39:22.970Z,100964.84
2023-05-09T05:41:51.879Z,100960.56
2023-05-09T05:44:20.553Z,100960.97
2023-05-09T05:46:48.553Z,100959.50
2023-05-09T05:49:19.299Z,100961.69
2023-05-09T05:51:47.085Z,100964.09
2023-05-09T05:54:17.001Z,100956.78
2023-05-09T05:56:45.000Z,100953.47
2023-05-09T06:02:05.603Z,100955.69
2023-05-09T06:04:37.656Z,100946.19
2023-05-09T06:07:06.785Z,100948.41
2023-05-09T06:09:34.359Z,100947.75
2023-05-09T06:12:02.055Z,100942.59
2023-05-09T06:14:30.673Z,100943.78
2023-05-09T06:16:59.420Z,100941.31
2023-05-09T06:19:27.124Z,100935.97
2023-05-09T06:21:56.274Z,100937.81
2023-05-09T06:24:35.149Z,100923.63
2023-05-09T06:27:05.172Z,100931.66
2023-05-09T06:29:32.808Z,100926.38
2023-05-09T06:32:00.686Z,100921.84
2023-05-09T06:34:28.586Z,100922.19
2023-05-09T06:36:58.289Z,100918.84
2023-05-09T06:39:26.199Z,100915.69
2023-05-09T06:41:53.721Z,100915.31
2023-05-09T06:44:31.385Z,100907.09
2023-05-09T06:46:59.568Z,100905.59
2023-05-09T06:49:27.568Z,100906.13
2023-05-09T06:51:55.648Z,100907.13
2023-05-09T06:54:24.557Z,100901.41
2023-05-09T06:56:52.572Z,100895.69
2023-05-09T06:59:20.211Z,100896.03
2023-05-09T07:01:48.733Z,100890.00
2023-05-09T07:04:16.294Z,100879.75
2023-05-09T07:06:45.584Z,100875.38
2023-05-09T07:09:17.428Z,100878.03
2023-05-09T07:11:46.909Z,100872.81
2023-05-09T07:14:15.087Z,100865.59
2023-05-09T07:16:43.015Z,100863.56
2023-05-09T07:19:10.750Z,100865.72
2023-05-09T07:21:38.362Z,100865.91
2023-05-09T07:24:07.574Z,100861.03
2023-05-09T07:27:04.661Z,100864.03
2023-05-09T07:29:32.665Z,100856.63
2023-05-09T07:32:01.163Z,100859.13
2023-05-09T07:34:30.585Z,100855.94
2023-05-09T07:36:58.581Z,100840.47
2023-05-09T07:39:26.278Z,100842.13
2023-05-09T07:41:53.966Z,100844.66
2023-05-09T07:44:23.524Z,100841.63
2023-05-09T07:46:51.107Z,100839.59
2023-05-09T07:49:18.890Z,100844.81
2023-05-09T07:51:46.971Z,100837.56
2023-05-09T07:54:15.160Z,100838.59
2023-05-09T07:56:42.817Z,100834.38
2023-05-09T07:59:11.585Z,100822.97
2023-05-09T08:01:45.556Z,100822.34
2023-05-09T08:04:14.136Z,100821.13
2023-05-09T08:06:41.700Z,100821.31
2023-05-09T08:09:13.567Z,100809.72
2023-05-09T08:11:43.061Z,100816.41
2023-05-09T08:14:10.837Z,100812.34
2023-05-09T08:16:38.565Z,100805.09
2023-05-09T08:19:07.896Z,100808.56
2023-05-09T08:21:35.848Z,100803.13
2023-05-09T08:24:03.572Z,100796.75
2023-05-09T08:26:31.576Z,100785.81
2023-05-09T08:28:59.650Z,100787.41
2023-05-09T08:31:27.797Z,100782.28
2023-05-09T08:33:55.713Z,100773.28
2023-05-09T08:36:24.854Z,100776.41
2023-05-09T08:38:52.968Z,100772.06
2023-05-09T08:41:29.588Z,100765.59
2023-05-09T08:43:57.239Z,100758.75
2023-05-09T08:46:29.429Z,100757.25
2023-05-09T08:48:58.703Z,100751.41
2023-05-09T08:51:28.574Z,100753.16
2023-05-09T08:54:00.153Z,100748.59
2023-05-09T08:56:28.839Z,100753.31
2023-05-09T08:58:57.246Z,100747.19
2023-05-09T09:01:26.655Z,100747.13
2023-05-09T09:03:55.000Z,100747.13
2023-05-09T09:06:26.588Z,100748.28
2023-05-09T09:08:57.793Z,100740.22
2023-05-09T09:11:26.724Z,100750.34
2023-05-09T09:13:55.506Z,100742.63
2023-05-09T09:16:25.046Z,100742.19
2023-05-09T09:18:53.770Z,100736.81
2023-05-09T09:21:22.578Z,100732.25
2023-05-09T09:23:51.751Z,100728.31
2023-05-09T09:26:21.591Z,100724.88
2023-05-09T09:28:50.609Z,100724.44
2023-05-09T09:31:22.825Z,100722.16
2023-05-09T09:33:53.604Z,100716.97
2023-05-09T09:36:28.024Z,100715.94
2023-05-09T09:39:01.830Z,100710.56
2023-05-09T09:41:34.618Z,100716.44
2023-05-09T09:44:08.171Z,100705.94
2023-05-09T09:46:44.856Z,100702.47
2023-05-09T09:49:13.352Z,100703.31
2023-05-09T09:51:42.739Z,100696.25
2023-05-09T09:54:12.915Z,100702.47
2023-05-09T09:56:43.968Z,100689.84
2023-05-09T09:59:13.686Z,100683.28
2023-05-09T10:01:58.718Z,100684.97
2023-05-09T10:04:31.043Z,100667.63
2023-05-09T10:06:59.745Z,100672.44
2023-05-09T10:09:29.122Z,100674.56
2023-05-09T10:12:04.590Z,100663.38
2023-05-09T10:14:35.850Z,100666.69
2023-05-09T10:17:05.837Z,100672.34
2023-05-09T10:19:36.310Z,100661.81
2023-05-09T10:22:06.629Z,100664.97
2023-05-09T10:24:36.772Z,100667.72
2023-05-09T10:27:10.870Z,100662.16
2023-05-09T10:29:45.373Z,100650.41
2023-05-09T10:32:17.537Z,100644.69
2023-05-09T10:34:49.942Z,100638.47
2023-05-09T10:37:19.620Z,100644.09
2023-05-09T10:39:54.607Z,100637.41
2023-05-09T10:42:25.763Z,100637.88
2023-05-09T10:44:55.563Z,100631.69
2023-05-09T10:47:23.765Z,100629.84
2023-05-09T10:49:51.866Z,100627.34
2023-05-09T10:52:21.847Z,100621.34
2023-05-09T10:55:02.612Z,100613.69
2023-05-09T10:57:33.805Z,100606.25
2023-05-09T11:00:05.926Z,100601.94
2023-05-09T11:02:35.012Z,100595.06
2023-05-09T11:05:14.869Z,100588.69
2023-05-09T11:07:43.258Z,100592.84
2023-05-09T11:10:18.396Z,100596.84
2023-05-09T11:12:58.345Z,100585.59
2023-05-09T11:15:28.108Z,100584.59
2023-05-09T11:21:00.909Z,100569.22
2023-05-09T11:23:35.595Z,100571.31
2023-05-09T11:26:07.351Z,100570.66
2023-05-09T11:28:38.714Z,100563.25
2023-05-09T11:31:11.349Z,100557.16
2023-05-09T11:33:40.245Z,100563.03
2023-05-09T11:36:25.589Z,100550.34
2023-05-09T11:39:03.841Z,100547.88
2023-05-09T11:41:36.606Z,100546.81
2023-05-09T11:44:13.538Z,100540.59
2023-05-09T11:46:41.238Z,100532.91
2023-05-09T11:49:09.586Z,100531.22
2023-05-09T11:51:39.639Z,100529.78
2023-05-09T11:54:11.206Z,100531.66
2023-05-09T11:56:41.892Z,100527.50
2023-05-09T11:59:14.608Z,100515.41
2023-05-09T12:01:42.462Z,100508.34
2023-05-09T12:04:10.213Z,100504.59
2023-05-09T12:06:39.723Z,100506.66
2023-05-09T12:09:10.416Z,100500.22
2023-05-09T12:11:38.257Z,100495.38
2023-05-09T12:14:05.808Z,100484.38
2023-05-09T12:16:34.899Z,100480.19
2023-05-09T12:19:02.657Z,100477.94
2023-05-09T12:21:30.590Z,100469.16
2023-05-09T12:23:58.725Z,100464.78
2023-05-09T12:26:27.037Z,100466.25
2023-05-09T12:28:55.095Z,100472.28
2023-05-09T12:31:23.485Z,100468.53
2023-05-09T12:33:53.608Z,100467.09
2023-05-09T12:36:24.465Z,100460.66
2023-05-09T12:38:56.061Z,100459.59
2023-05-09T12:43:55.520Z,100458.31
2023-05-09T12:46:23.442Z,100453.13
2023-05-09T12:48:52.568Z,100456.47
2023-05-09T12:51:21.525Z,100441.69
2023-05-09T12:53:52.643Z,100437.13
2023-05-09T12:56:22.820Z,100439.78
2023-05-09T12:58:52.708Z,100434.16
2023-05-09T13:01:20.774Z,100437.28
2023-05-09T13:03:54.081Z,100432.91
2023-05-09T13:06:22.722Z,100435.84
2023-05-09T13:08:58.931Z,100429.56
2023-05-09T13:11:26.853Z,100427.53
2023-05-09T13:13:55.606Z,100412.16
2023-05-09T13:16:23.463Z,100417.75
2023-05-09T13:18:51.728Z,100410.09
2023-05-09T13:21:21.684Z,100402.63
2023-05-09T13:23:49.982Z,100398.66
2023-05-09T13:26:17.592Z,100400.53
2023-05-09T13:28:45.288Z,100387.63
2023-05-09T13:31:13.109Z,100384.91
2023-05-09T13:33:41.627Z,100381.75
2023-05-09T13:36:09.340Z,100387.97
2023-05-09T13:38:40.525Z,100375.44
2023-05-09T13:41:08.696Z,100363.56
2023-05-09T13:43:37.808Z,100367.66
2023-05-09T13:46:05.584Z,100363.28
2023-05-09T13:48:36.646Z,100364.59
2023-05-09T13:51:07.659Z,100369.66
2023-05-09T13:53:36.832Z,100366.16
2023-05-09T13:56:10.144Z,100372.66
2023-05-09T13:58:38.716Z,100363.09
2023-05-09T14:04:02.444Z,100363.06
2023-05-09T14:06:30.196Z,100358.91
2023-05-09T14:08:58.394Z,100355.00
2023-05-09T14:11:27.337Z,100353.13
2023-05-09T14:13:55.829Z,100356.22
2023-05-09T14:16:23.473Z,100346.88
2023-05-09T14:18:51.220Z,100352.69
2023-05-09T14:21:19.747Z,100330.66
2023-05-09T14:23:49.489Z,100334.38
2023-05-09T14:26:17.700Z,100334.53
2023-05-09T14:28:48.535Z,100346.59
2023-05-09T14:31:16.316Z,100339.09
2023-05-09T14:33:47.626Z,100336.88
2023-05-09T14:36:16.601Z,100337.75
2023-05-09T14:38:45.556Z,100338.44
2023-05-09T14:41:15.424Z,100342.16
2023-05-09T14:43:44.202Z,100343.03
2023-05-09T14:46:13.164Z,100352.81
2023-05-09T14:48:41.150Z,100360.94
2023-05-09T14:51:10.799Z,100358.03
2023-05-09T14:53:41.611Z,100344.94
2023-05-09T14:56:10.996Z,100336.25
2023-05-09T14:58:38.642Z,100330.41
2023-05-09T15:01:06.779Z,100323.75
2023-05-09T15:03:35.737Z,100316.44
2023-05-09T15:06:04.284Z,100324.06
2023-05-09T15:08:32.663Z,100325.91
2023-05-09T15:11:01.700Z,100328.16
2023-05-09T15:13:29.450Z,100323.13
2023-05-09T15:15:57.647Z,100314.78
2023-05-09T15:18:28.715Z,100318.09
2023-05-09T15:20:57.744Z,100312.75
2023-05-09T15:23:26.372Z,100306.63
2023-05-09T15:25:55.640Z,100305.25
2023-05-09T15:28:23.830Z,100302.22
2023-05-09T15:30:51.555Z,100301.03
2023-05-09T15:33:21.260Z,100309.25
2023-05-09T15:35:50.748Z,100308.75
2023-05-09T15:38:19.656Z,100300.00
2023-05-09T15:40:47.704Z,100306.31
2023-05-09T15:43:15.488Z,100298.59
2023-05-09T15:45:45.831Z,100294.16
2023-05-09T15:48:13.762Z,100287.69
2023-05-09T15:50:42.970Z,100289.38
2023-05-09T15:53:10.616Z,100280.28
2023-05-09T15:55:39.695Z,100282.97
2023-05-09T15:58:08.441Z,100279.25
2023-05-09T16:00:36.044Z,100278.41
2023-05-09T16:03:04.694Z,100279.59
2023-05-09T16:05:32.748Z,100285.59
2023-05-09T16:08:00.494Z,100300.63
2023-05-09T16:10:28.137Z,100301.44
2023-05-09T16:12:57.101Z,100288.63
2023-05-09T16:15:24.780Z,100300.22
2023-05-09T16:17:52.538Z,100283.06
2023-05-09T16:20:20.229Z,100287.25
2023-05-09T16:22:47.840Z,100300.69
2023-05-09T16:25:15.464Z,100299.66
2023-05-09T16:27:43.144Z,100290.75
2023-05-09T16:30:13.435Z,100292.63
2023-05-09T16:32:41.358Z,100283.72
2023-05-09T16:35:10.168Z,100289.94
2023-05-09T16:37:38.714Z,100286.22
2023-05-09T16:40:07.498Z,100278.16
2023-05-09T16:42:35.219Z,100277.31
2023-05-09T16:45:03.477Z,100271.94
2023-05-09T16:47:32.556Z,100268.44
2023-05-09T16:50:01.274Z,100258.88
2023-05-09T16:52:29.443Z,100255.53
2023-05-09T16:54:59.108Z,100260.28
2023-05-09T16:57:26.929Z,100259.47
2023-05-09T16:59:55.584Z,100264.19
2023-05-09T17:02:23.337Z,100260.84
2023-05-09T17:04:52.665Z,100244.09
2023-05-09T17:07:20.275Z,100237.03
2023-05-09T17:09:49.452Z,100223.16
2023-05-09T17:12:18.746Z,100233.25
2023-05-09T17:14:46.659Z,100244.41
2023-05-09T17:17:17.550Z,100238.41
2023-05-09T17:19:49.193Z,100247.66
2023-05-09T17:22:18.113Z,100247.84
2023-05-09T17:24:45.787Z,100243.69
2023-05-09T17:27:14.200Z,100250.28
2023-05-09T17:29:41.806Z,100264.94
2023-05-09T17:32:09.380Z,100265.94
2023-05-09T17:34:37.891Z,100283.28
2023-05-09T17:37:06.305Z,100260.31
2023-05-09T17:39:37.539Z,100254.84
2023-05-09T17:42:05.517Z,100269.00
2023-05-09T17:44:33.212Z,100261.25
2023-05-09T17:47:02.046Z,100261.16
2023-05-09T17:49:30.269Z,100256.34
2023-05-09T17:51:57.891Z,100264.94
2023-05-09T17:54:26.038Z,100267.19
2023-05-09T17:56:59.035Z,100274.56
2023-05-09T17:59:26.839Z,100265.88
2023-05-09T18:01:54.627Z,100271.44
2023-05-09T18:04:22.308Z,100267.94
2023-05-09T18:06:50.552Z,100270.97
2023-05-09T18:09:18.673Z,100271.16
2023-05-09T18:11:46.216Z,100263.47
2023-05-09T18:14:16.334Z,100264.50
2023-05-09T18:16:43.967Z,100269.84
2023-05-09T18:19:11.959Z,100266.34
2023-05-09T18:21:40.417Z,100262.19
2023-05-09T18:24:09.082Z,100268.75
2023-05-09T18:26:37.794Z,100260.06
2023-05-09T18:29:06.581Z,100265.63
2023-05-09T18:31:38.780Z,100256.06
2023-05-09T18:34:07.292Z,100256.25
2023-05-09T18:36:34.971Z,100243.84
2023-05-09T18:39:02.587Z,100235.13
2023-05-09T18:41:31.893Z,100245.22
2023-05-09T18:43:59.652Z,100245.44
2023-05-09T18:46:27.952Z,100249.28
2023-05-09T18:48:57.480Z,100253.00
2023-05-09T18:51:25.542Z,100255.69
2023-05-09T18:53:54.310Z,100262.25
2023-05-09T18:56:22.110Z,100265.09
2023-05-09T18:58:50.582Z,100255.41
2023-05-09T19:01:18.924Z,100251.88
2023-05-09T19:03:53.701Z,100256.41
2023-05-09T19:06:24.661Z,100258.28
2023-05-09T19:08:53.721Z,100263.81
2023-05-09T19:11:21.849Z,100249.75
2023-05-09T19:13:53.131Z,100241.88
2023-05-09T19:16:22.392Z,100241.44
2023-05-09T19:18:50.075Z,100241.78
2023-05-09T19:21:18.720Z,100238.28
2023-05-09T19:23:49.094Z,100242.81
2023-05-09T19:26:17.385Z,100236.13
2023-05-09T19:28:46.166Z,100231.97
2023-05-09T19:31:14.654Z,100237.50
2023-05-09T19:33:45.628Z,100244.72
2023-05-09T19:36:14.252Z,100237.69
2023-05-09T19:38:43.671Z,100244.06
2023-05-09T19:41:13.889Z,100240.56
2023-05-09T19:43:42.245Z,100244.06
2023-05-09T19:46:11.585Z,100237.88
2023-05-09T19:48:39.623Z,100241.41
2023-05-09T19:51:12.084Z,100237.25
2023-05-09T19:53:40.181Z,100239.09
2023-05-09T19:56:08.854Z,100240.91
2023-05-09T19:58:38.795Z,100241.09
2023-05-09T20:01:07.017Z,100238.41
2023-05-09T20:03:37.092Z,100233.25
2023-05-09T20:06:05.685Z,100229.72
2023-05-09T20:08:35.691Z,100225.38
2023-05-09T20:11:03.301Z,100222.03
2023-05-09T20:13:30.981Z,100222.88
2023-05-09T20:16:00.141Z,100228.41
2023-05-09T20:18:28.408Z,100222.22
2023-05-09T20:20:56.323Z,100219.69
2023-05-09T20:23:23.884Z,100219.69
2023-05-09T20:25:51.542Z,100212.69
2023-05-09T20:28:20.305Z,100210.16
2023-05-09T20:30:48.159Z,100204.78
2023-05-09T20:33:17.193Z,100196.09
2023-05-09T20:35:44.778Z,100192.78
2023-05-09T20:38:13.756Z,100197.47
2023-05-09T20:40:41.416Z,100199.50
2023-05-09T20:43:09.790Z,100196.00
2023-05-09T20:45:38.199Z,100192.69
2023-05-09T20:48:06.738Z,100193.69
2023-05-09T20:50:36.884Z,100191.00
2023-05-09T20:53:04.742Z,100179.63
2023-05-09T20:55:32.845Z,100178.59
2023-05-09T20:58:00.709Z,100172.59
2023-05-09T21:00:30.789Z,100176.31
2023-05-09T21:02:58.886Z,100179.81
2023-05-09T21:05:28.180Z,100177.31
2023-05-09T21:07:57.198Z,100169.44
2023-05-09T21:10:25.880Z,100168.81
2023-05-09T21:12:53.532Z,100168.81
2023-05-09T21:15:21.420Z,100167.97
2023-05-09T21:17:49.887Z,100165.47
2023-05-09T21:20:17.866Z,100162.81
2023-05-09T21:22:46.015Z,100163.78
2023-05-09T21:25:15.561Z,100167.69
2023-05-09T21:27:43.264Z,100157.97
2023-05-09T21:30:11.750Z,100156.31
2023-05-09T21:32:39.715Z,100153.63
2023-05-09T21:35:12.720Z,100145.75
2023-05-09T21:37:40.776Z,100148.44
2023-05-09T21:40:09.795Z,100147.59
2023-05-09T21:42:40.148Z,100146.97
2023-05-09T21:45:09.509Z,100145.31
2023-05-09T21:47:39.847Z,100145.31
2023-05-09T21:50:08.789Z,100142.81
2023-05-09T21:52:36.686Z,100143.81
2023-05-09T21:55:04.810Z,100144.63
2023-05-09T21:57:32.414Z,100141.94
2023-05-09T22:00:02.359Z,100128.56
2023-05-09T22:02:30.897Z,100139.13
2023-05-09T22:04:58.548Z,100131.22
2023-05-09T22:07:26.433Z,100136.44
2023-05-09T22:09:54.063Z,100138.28
2023-05-09T22:12:21.616Z,100139.28
2023-05-09T22:14:56.377Z,100137.59
2023-05-09T22:17:26.027Z,100144.00
2023-05-09T22:19:54.114Z,100133.28
2023-05-09T22:22:26.802Z,100133.47
2023-05-09T22:24:54.432Z,100134.47
2023-05-09T22:27:22.348Z,100130.97
2023-05-09T22:29:49.938Z,100132.81
2023-05-09T22:32:18.268Z,100131.31
2023-05-09T22:34:48.997Z,100131.50
2023-05-09T22:37:16.893Z,100135.00
2023-05-09T22:39:47.216Z,100129.84
2023-05-09T22:42:14.884Z,100137.88
2023-05-09T22:44:43.284Z,100134.53
2023-05-09T22:47:10.993Z,100138.03
2023-05-09T22:49:38.560Z,100135.53
2023-05-09T22:52:07.711Z,100123.16
2023-05-09T22:54:35.341Z,100123.16
2023-05-09T22:57:03.399Z,100115.31
2023-05-09T22:59:31.973Z,100116.34
2023-05-09T23:02:00.480Z,100112.16
2023-05-09T23:04:28.210Z,100111.31
2023-05-09T23:06:56.791Z,100115.22
2023-05-09T23:09:25.929Z,100125.09
2023-05-09T23:11:53.545Z,100127.78
2023-05-09T23:14:25.179Z,100128.13
2023-05-09T23:16:53.704Z,100131.81
2023-05-09T23:19:21.480Z,100124.81
2023-05-09T23:21:49.708Z,100121.28
2023-05-09T23:24:19.793Z,100117.94
2023-05-09T23:26:48.707Z,100117.09
2023-05-09T23:29:16.720Z,100121.81
2023-05-09T23:31:44.356Z,100118.31
2023-05-09T23:34:12.027Z,100116.81
2023-05-09T23:36:39.849Z,100117.00
2023-05-09T23:39:07.673Z,100114.50
2023-05-09T23:41:37.267Z,100114.66
2023-05-09T23:44:07.439Z,100113.00
2023-05-09T23:46:35.320Z,100113.19
2023-05-09T23:49:03.770Z,100111.53
2023-05-09T23:51:31.802Z,100109.88
2023-05-09T23:53:59.395Z,100112.69
2023-05-09T23:56:27.358Z,100109.56
2023-05-09T23:58:55.536Z,100110.59
